sensor_id;sensor_type;location;lat;lon;timestamp;P1;durP1;ratioP1;P2;durP2;ratioP2
17648;SDS011;8943;51.110;-4.158;2023-03-04T00:01:30;13.53;;;10.93;;
17648;SDS011;8943;51.110;-4.158;2023-03-04T00:03:58;13.30;;;10.17;;
17648;SDS011;8943;51.110;-4.158;2023-03-04T00:06:26;12.73;;;9.87;;
17648;SDS011;8943;51.110;-4.158;2023-03-04T00:08:54;12.27;;;10.10;;
17648;SDS011;8943;51.110;-4.158;2023-03-04T00:11:22;15.03;;;11.60;;
17648;SDS011;8943;51.110;-4.158;2023-03-04T00:13:52;17.93;;;11.10;;
17648;SDS011;8943;51.110;-4.158;2023-03-04T00:16:20;14.17;;;11.13;;
17648;SDS011;8943;51.110;-4.158;2023-03-04T00:18:48;14.10;;;10.93;;
17648;SDS011;8943;51.110;-4.158;2023-03-04T00:21:16;13.70;;;10.40;;
17648;SDS011;8943;51.110;-4.158;2023-03-04T00:23:44;14.37;;;10.73;;
17648;SDS011;8943;51.110;-4.158;2023-03-04T00:26:12;17.63;;;11.63;;
17648;SDS011;8943;51.110;-4.158;2023-03-04T00:28:40;18.07;;;12.67;;
17648;SDS011;8943;51.110;-4.158;2023-03-04T00:31:10;14.97;;;10.63;;
17648;SDS011;8943;51.110;-4.158;2023-03-04T00:33:38;16.73;;;10.53;;
17648;SDS011;8943;51.110;-4.158;2023-03-04T00:36:08;13.93;;;9.90;;
17648;SDS011;8943;51.110;-4.158;2023-03-04T00:38:37;14.90;;;10.57;;
17648;SDS011;8943;51.110;-4.158;2023-03-04T00:41:05;17.37;;;11.23;;
17648;SDS011;8943;51.110;-4.158;2023-03-04T00:43:33;14.80;;;10.53;;
17648;SDS011;8943;51.110;-4.158;2023-03-04T00:46:01;15.87;;;10.80;;
17648;SDS011;8943;51.110;-4.158;2023-03-04T00:48:30;14.13;;;10.87;;
17648;SDS011;8943;51.110;-4.158;2023-03-04T00:50:58;14.93;;;10.50;;
17648;SDS011;8943;51.110;-4.158;2023-03-04T00:53:26;14.53;;;10.30;;
17648;SDS011;8943;51.110;-4.158;2023-03-04T00:55:53;13.10;;;9.43;;
17648;SDS011;8943;51.110;-4.158;2023-03-04T00:58:21;15.57;;;10.60;;
17648;SDS011;8943;51.110;-4.158;2023-03-04T01:00:49;13.87;;;9.23;;
17648;SDS011;8943;51.110;-4.158;2023-03-04T01:03:17;13.00;;;9.13;;
17648;SDS011;8943;51.110;-4.158;2023-03-04T01:05:47;9.30;;;7.17;;
17648;SDS011;8943;51.110;-4.158;2023-03-04T01:08:15;10.50;;;7.93;;
17648;SDS011;8943;51.110;-4.158;2023-03-04T01:10:43;10.30;;;7.70;;
17648;SDS011;8943;51.110;-4.158;2023-03-04T01:13:11;9.30;;;7.40;;
17648;SDS011;8943;51.110;-4.158;2023-03-04T01:15:39;8.83;;;6.77;;
17648;SDS011;8943;51.110;-4.158;2023-03-04T01:18:06;9.37;;;6.33;;
17648;SDS011;8943;51.110;-4.158;2023-03-04T01:20:35;10.37;;;7.40;;
17648;SDS011;8943;51.110;-4.158;2023-03-04T01:23:04;8.90;;;7.00;;
17648;SDS011;8943;51.110;-4.158;2023-03-04T01:25:32;10.50;;;7.93;;
17648;SDS011;8943;51.110;-4.158;2023-03-04T01:28:00;10.90;;;7.67;;
17648;SDS011;8943;51.110;-4.158;2023-03-04T01:30:28;9.30;;;7.17;;
17648;SDS011;8943;51.110;-4.158;2023-03-04T01:32:56;10.07;;;7.77;;
17648;SDS011;8943;51.110;-4.158;2023-03-04T01:35:24;8.87;;;7.50;;
17648;SDS011;8943;51.110;-4.158;2023-03-04T01:37:53;9.57;;;7.07;;
17648;SDS011;8943;51.110;-4.158;2023-03-04T01:40:22;11.43;;;7.87;;
17648;SDS011;8943;51.110;-4.158;2023-03-04T01:42:50;10.47;;;7.87;;
17648;SDS011;8943;51.110;-4.158;2023-03-04T01:45:18;8.37;;;6.83;;
17648;SDS011;8943;51.110;-4.158;2023-03-04T01:47:47;10.50;;;6.87;;
17648;SDS011;8943;51.110;-4.158;2023-03-04T01:50:19;10.87;;;7.97;;
17648;SDS011;8943;51.110;-4.158;2023-03-04T01:52:50;8.80;;;6.90;;
17648;SDS011;8943;51.110;-4.158;2023-03-04T01:55:19;9.10;;;6.90;;
17648;SDS011;8943;51.110;-4.158;2023-03-04T01:57:51;9.73;;;7.30;;
17648;SDS011;8943;51.110;-4.158;2023-03-04T02:00:24;9.37;;;7.37;;
17648;SDS011;8943;51.110;-4.158;2023-03-04T02:02:56;10.27;;;7.50;;
17648;SDS011;8943;51.110;-4.158;2023-03-04T02:05:26;11.30;;;7.30;;
17648;SDS011;8943;51.110;-4.158;2023-03-04T02:07:55;8.63;;;6.70;;
17648;SDS011;8943;51.110;-4.158;2023-03-04T02:10:25;11.87;;;7.10;;
17648;SDS011;8943;51.110;-4.158;2023-03-04T02:12:54;8.40;;;6.40;;
17648;SDS011;8943;51.110;-4.158;2023-03-04T02:15:22;8.23;;;6.27;;
17648;SDS011;8943;51.110;-4.158;2023-03-04T02:17:51;9.10;;;6.90;;
17648;SDS011;8943;51.110;-4.158;2023-03-04T02:20:22;10.00;;;7.00;;
17648;SDS011;8943;51.110;-4.158;2023-03-04T02:23:00;9.63;;;6.80;;
17648;SDS011;8943;51.110;-4.158;2023-03-04T02:25:35;8.50;;;6.87;;
17648;SDS011;8943;51.110;-4.158;2023-03-04T02:28:11;11.37;;;7.93;;
17648;SDS011;8943;51.110;-4.158;2023-03-04T02:30:39;9.43;;;6.60;;
17648;SDS011;8943;51.110;-4.158;2023-03-04T02:33:09;10.13;;;6.77;;
17648;SDS011;8943;51.110;-4.158;2023-03-04T02:35:41;16.37;;;6.67;;
17648;SDS011;8943;51.110;-4.158;2023-03-04T02:38:09;11.73;;;6.67;;
17648;SDS011;8943;51.110;-4.158;2023-03-04T02:40:39;8.93;;;6.20;;
17648;SDS011;8943;51.110;-4.158;2023-03-04T02:43:11;9.43;;;6.27;;
17648;SDS011;8943;51.110;-4.158;2023-03-04T02:45:40;11.00;;;6.50;;
17648;SDS011;8943;51.110;-4.158;2023-03-04T02:48:09;8.80;;;6.77;;
17648;SDS011;8943;51.110;-4.158;2023-03-04T02:50:40;11.03;;;7.37;;
17648;SDS011;8943;51.110;-4.158;2023-03-04T02:53:09;10.97;;;7.40;;
17648;SDS011;8943;51.110;-4.158;2023-03-04T02:55:38;8.37;;;6.40;;
17648;SDS011;8943;51.110;-4.158;2023-03-04T02:58:07;8.60;;;6.37;;
17648;SDS011;8943;51.110;-4.158;2023-03-04T03:00:37;10.23;;;6.73;;
17648;SDS011;8943;51.110;-4.158;2023-03-04T03:03:06;8.53;;;6.37;;
17648;SDS011;8943;51.110;-4.158;2023-03-04T03:05:35;9.43;;;6.10;;
17648;SDS011;8943;51.110;-4.158;2023-03-04T03:08:03;9.43;;;6.87;;
17648;SDS011;8943;51.110;-4.158;2023-03-04T03:10:32;8.80;;;6.47;;
17648;SDS011;8943;51.110;-4.158;2023-03-04T03:13:00;9.47;;;7.13;;
17648;SDS011;8943;51.110;-4.158;2023-03-04T03:15:29;11.70;;;6.67;;
17648;SDS011;8943;51.110;-4.158;2023-03-04T03:17:58;7.90;;;6.30;;
17648;SDS011;8943;51.110;-4.158;2023-03-04T03:20:26;9.30;;;7.17;;
17648;SDS011;8943;51.110;-4.158;2023-03-04T03:22:54;9.40;;;6.80;;
17648;SDS011;8943;51.110;-4.158;2023-03-04T03:25:22;8.97;;;7.17;;
17648;SDS011;8943;51.110;-4.158;2023-03-04T03:27:50;12.17;;;7.53;;
17648;SDS011;8943;51.110;-4.158;2023-03-04T03:30:18;8.90;;;6.37;;
17648;SDS011;8943;51.110;-4.158;2023-03-04T03:32:46;10.17;;;6.90;;
17648;SDS011;8943;51.110;-4.158;2023-03-04T03:35:16;9.00;;;6.77;;
17648;SDS011;8943;51.110;-4.158;2023-03-04T03:37:44;10.07;;;6.93;;
17648;SDS011;8943;51.110;-4.158;2023-03-04T03:40:14;10.27;;;6.93;;
17648;SDS011;8943;51.110;-4.158;2023-03-04T03:42:42;8.57;;;6.50;;
17648;SDS011;8943;51.110;-4.158;2023-03-04T03:45:10;9.30;;;6.37;;
17648;SDS011;8943;51.110;-4.158;2023-03-04T03:47:38;12.67;;;7.30;;
17648;SDS011;8943;51.110;-4.158;2023-03-04T03:50:06;9.40;;;7.70;;
17648;SDS011;8943;51.110;-4.158;2023-03-04T03:52:36;8.93;;;6.63;;
17648;SDS011;8943;51.110;-4.158;2023-03-04T03:55:04;10.20;;;7.50;;
17648;SDS011;8943;51.110;-4.158;2023-03-04T03:57:33;9.23;;;6.73;;
17648;SDS011;8943;51.110;-4.158;2023-03-04T04:00:01;9.70;;;6.97;;
17648;SDS011;8943;51.110;-4.158;2023-03-04T04:02:29;8.73;;;7.03;;
17648;SDS011;8943;51.110;-4.158;2023-03-04T04:04:57;8.87;;;7.10;;
17648;SDS011;8943;51.110;-4.158;2023-03-04T04:07:25;11.40;;;6.50;;
17648;SDS011;8943;51.110;-4.158;2023-03-04T04:09:55;9.13;;;7.10;;
17648;SDS011;8943;51.110;-4.158;2023-03-04T04:12:23;11.00;;;6.33;;
17648;SDS011;8943;51.110;-4.158;2023-03-04T04:14:51;13.53;;;8.13;;
17648;SDS011;8943;51.110;-4.158;2023-03-04T04:17:19;15.30;;;8.87;;
17648;SDS011;8943;51.110;-4.158;2023-03-04T04:19:48;14.57;;;8.83;;
17648;SDS011;8943;51.110;-4.158;2023-03-04T04:22:16;11.37;;;7.17;;
17648;SDS011;8943;51.110;-4.158;2023-03-04T04:24:46;8.53;;;6.13;;
17648;SDS011;8943;51.110;-4.158;2023-03-04T04:27:16;11.80;;;6.10;;
17648;SDS011;8943;51.110;-4.158;2023-03-04T04:29:44;11.13;;;7.10;;
17648;SDS011;8943;51.110;-4.158;2023-03-04T04:32:11;15.77;;;8.67;;
17648;SDS011;8943;51.110;-4.158;2023-03-04T04:34:39;19.27;;;9.87;;
17648;SDS011;8943;51.110;-4.158;2023-03-04T04:37:08;13.53;;;8.07;;
17648;SDS011;8943;51.110;-4.158;2023-03-04T04:39:36;10.10;;;6.43;;
17648;SDS011;8943;51.110;-4.158;2023-03-04T04:42:04;8.90;;;6.80;;
17648;SDS011;8943;51.110;-4.158;2023-03-04T04:44:34;8.13;;;6.53;;
17648;SDS011;8943;51.110;-4.158;2023-03-04T04:47:04;8.57;;;6.57;;
17648;SDS011;8943;51.110;-4.158;2023-03-04T04:49:32;12.43;;;7.17;;
17648;SDS011;8943;51.110;-4.158;2023-03-04T04:52:00;10.00;;;6.80;;
17648;SDS011;8943;51.110;-4.158;2023-03-04T04:54:29;11.00;;;7.40;;
17648;SDS011;8943;51.110;-4.158;2023-03-04T04:56:57;14.07;;;8.37;;
17648;SDS011;8943;51.110;-4.158;2023-03-04T04:59:25;12.87;;;8.73;;
17648;SDS011;8943;51.110;-4.158;2023-03-04T05:01:54;11.70;;;8.80;;
17648;SDS011;8943;51.110;-4.158;2023-03-04T05:04:22;15.83;;;9.20;;
17648;SDS011;8943;51.110;-4.158;2023-03-04T05:06:50;13.73;;;8.37;;
17648;SDS011;8943;51.110;-4.158;2023-03-04T05:09:18;14.33;;;9.30;;
17648;SDS011;8943;51.110;-4.158;2023-03-04T05:11:48;11.90;;;8.87;;
17648;SDS011;8943;51.110;-4.158;2023-03-04T05:14:16;12.00;;;7.57;;
17648;SDS011;8943;51.110;-4.158;2023-03-04T05:16:44;11.17;;;7.57;;
17648;SDS011;8943;51.110;-4.158;2023-03-04T05:19:14;12.67;;;8.20;;
17648;SDS011;8943;51.110;-4.158;2023-03-04T05:21:42;8.53;;;7.03;;
17648;SDS011;8943;51.110;-4.158;2023-03-04T05:24:10;9.83;;;7.10;;
17648;SDS011;8943;51.110;-4.158;2023-03-04T05:26:38;9.20;;;7.20;;
17648;SDS011;8943;51.110;-4.158;2023-03-04T05:29:05;9.37;;;7.10;;
17648;SDS011;8943;51.110;-4.158;2023-03-04T05:31:34;13.07;;;7.20;;
17648;SDS011;8943;51.110;-4.158;2023-03-04T05:34:02;12.50;;;7.70;;
17648;SDS011;8943;51.110;-4.158;2023-03-04T05:36:31;15.50;;;7.83;;
17648;SDS011;8943;51.110;-4.158;2023-03-04T05:38:59;12.00;;;7.47;;
17648;SDS011;8943;51.110;-4.158;2023-03-04T05:41:27;12.20;;;7.30;;
17648;SDS011;8943;51.110;-4.158;2023-03-04T05:43:55;9.07;;;7.27;;
17648;SDS011;8943;51.110;-4.158;2023-03-04T05:46:23;10.60;;;7.67;;
17648;SDS011;8943;51.110;-4.158;2023-03-04T05:48:52;11.60;;;7.07;;
17648;SDS011;8943;51.110;-4.158;2023-03-04T05:51:20;8.70;;;6.77;;
17648;SDS011;8943;51.110;-4.158;2023-03-04T05:53:51;8.17;;;6.47;;
17648;SDS011;8943;51.110;-4.158;2023-03-04T05:56:19;9.00;;;6.67;;
17648;SDS011;8943;51.110;-4.158;2023-03-04T05:58:47;9.93;;;6.53;;
17648;SDS011;8943;51.110;-4.158;2023-03-04T06:01:15;15.13;;;5.97;;
17648;SDS011;8943;51.110;-4.158;2023-03-04T06:03:44;8.13;;;5.73;;
17648;SDS011;8943;51.110;-4.158;2023-03-04T06:06:13;9.73;;;5.47;;
17648;SDS011;8943;51.110;-4.158;2023-03-04T06:08:42;8.50;;;6.07;;
17648;SDS011;8943;51.110;-4.158;2023-03-04T06:11:11;9.17;;;5.87;;
17648;SDS011;8943;51.110;-4.158;2023-03-04T06:13:39;8.07;;;6.20;;
17648;SDS011;8943;51.110;-4.158;2023-03-04T06:16:08;6.87;;;6.00;;
17648;SDS011;8943;51.110;-4.158;2023-03-04T06:18:37;12.03;;;6.07;;
17648;SDS011;8943;51.110;-4.158;2023-03-04T06:21:05;7.13;;;5.50;;
17648;SDS011;8943;51.110;-4.158;2023-03-04T06:23:33;10.80;;;6.70;;
17648;SDS011;8943;51.110;-4.158;2023-03-04T06:26:01;9.00;;;6.57;;
17648;SDS011;8943;51.110;-4.158;2023-03-04T06:28:30;12.37;;;6.80;;
17648;SDS011;8943;51.110;-4.158;2023-03-04T06:30:58;11.60;;;7.60;;
17648;SDS011;8943;51.110;-4.158;2023-03-04T06:33:27;10.17;;;7.83;;
17648;SDS011;8943;51.110;-4.158;2023-03-04T06:35:55;14.77;;;8.20;;
17648;SDS011;8943;51.110;-4.158;2023-03-04T06:38:24;8.97;;;6.70;;
17648;SDS011;8943;51.110;-4.158;2023-03-04T06:40:55;9.73;;;5.97;;
17648;SDS011;8943;51.110;-4.158;2023-03-04T06:43:23;9.37;;;5.90;;
17648;SDS011;8943;51.110;-4.158;2023-03-04T06:45:52;17.77;;;9.57;;
17648;SDS011;8943;51.110;-4.158;2023-03-04T06:48:20;13.33;;;8.87;;
17648;SDS011;8943;51.110;-4.158;2023-03-04T06:50:48;39.73;;;19.40;;
17648;SDS011;8943;51.110;-4.158;2023-03-04T06:53:16;28.90;;;15.17;;
17648;SDS011;8943;51.110;-4.158;2023-03-04T06:55:44;24.83;;;14.63;;
17648;SDS011;8943;51.110;-4.158;2023-03-04T06:58:12;18.03;;;9.77;;
17648;SDS011;8943;51.110;-4.158;2023-03-04T07:00:42;19.87;;;9.83;;
17648;SDS011;8943;51.110;-4.158;2023-03-04T07:03:12;15.27;;;8.27;;
17648;SDS011;8943;51.110;-4.158;2023-03-04T07:05:41;11.40;;;7.67;;
17648;SDS011;8943;51.110;-4.158;2023-03-04T07:08:09;12.30;;;7.30;;
17648;SDS011;8943;51.110;-4.158;2023-03-04T07:10:37;10.93;;;7.83;;
17648;SDS011;8943;51.110;-4.158;2023-03-04T07:13:05;10.50;;;8.13;;
17648;SDS011;8943;51.110;-4.158;2023-03-04T07:15:33;11.07;;;7.10;;
17648;SDS011;8943;51.110;-4.158;2023-03-04T07:18:01;10.17;;;6.83;;
17648;SDS011;8943;51.110;-4.158;2023-03-04T07:20:31;11.10;;;7.47;;
17648;SDS011;8943;51.110;-4.158;2023-03-04T07:22:59;12.10;;;8.07;;
17648;SDS011;8943;51.110;-4.158;2023-03-04T07:25:27;12.20;;;7.60;;
17648;SDS011;8943;51.110;-4.158;2023-03-04T07:27:55;14.27;;;9.03;;
17648;SDS011;8943;51.110;-4.158;2023-03-04T07:30:23;17.47;;;11.30;;
17648;SDS011;8943;51.110;-4.158;2023-03-04T07:32:51;22.47;;;13.00;;
17648;SDS011;8943;51.110;-4.158;2023-03-04T07:35:19;15.50;;;9.67;;
17648;SDS011;8943;51.110;-4.158;2023-03-04T07:37:49;14.50;;;9.60;;
17648;SDS011;8943;51.110;-4.158;2023-03-04T07:40:17;16.73;;;9.30;;
17648;SDS011;8943;51.110;-4.158;2023-03-04T07:42:48;11.70;;;8.30;;
17648;SDS011;8943;51.110;-4.158;2023-03-04T07:45:16;14.77;;;8.60;;
17648;SDS011;8943;51.110;-4.158;2023-03-04T07:47:44;14.77;;;9.57;;
17648;SDS011;8943;51.110;-4.158;2023-03-04T07:50:13;14.97;;;8.80;;
17648;SDS011;8943;51.110;-4.158;2023-03-04T07:52:44;13.93;;;9.73;;
17648;SDS011;8943;51.110;-4.158;2023-03-04T07:55:14;12.30;;;9.17;;
17648;SDS011;8943;51.110;-4.158;2023-03-04T07:57:43;15.50;;;10.60;;
17648;SDS011;8943;51.110;-4.158;2023-03-04T08:00:13;17.67;;;10.03;;
17648;SDS011;8943;51.110;-4.158;2023-03-04T08:02:42;15.53;;;10.33;;
17648;SDS011;8943;51.110;-4.158;2023-03-04T08:05:10;16.93;;;10.20;;
17648;SDS011;8943;51.110;-4.158;2023-03-04T08:07:39;14.77;;;10.10;;
17648;SDS011;8943;51.110;-4.158;2023-03-04T08:10:07;13.13;;;9.97;;
17648;SDS011;8943;51.110;-4.158;2023-03-04T08:12:37;14.20;;;9.70;;
17648;SDS011;8943;51.110;-4.158;2023-03-04T08:15:05;18.67;;;9.63;;
17648;SDS011;8943;51.110;-4.158;2023-03-04T08:17:34;14.23;;;8.67;;
17648;SDS011;8943;51.110;-4.158;2023-03-04T08:20:02;17.17;;;9.30;;
17648;SDS011;8943;51.110;-4.158;2023-03-04T08:22:31;15.37;;;9.43;;
17648;SDS011;8943;51.110;-4.158;2023-03-04T08:24:59;13.83;;;9.07;;
17648;SDS011;8943;51.110;-4.158;2023-03-04T08:27:27;13.13;;;9.80;;
17648;SDS011;8943;51.110;-4.158;2023-03-04T08:29:57;19.33;;;10.43;;
17648;SDS011;8943;51.110;-4.158;2023-03-04T08:32:25;15.03;;;9.30;;
17648;SDS011;8943;51.110;-4.158;2023-03-04T08:34:53;16.03;;;9.07;;
17648;SDS011;8943;51.110;-4.158;2023-03-04T08:37:22;17.70;;;8.50;;
17648;SDS011;8943;51.110;-4.158;2023-03-04T08:39:50;13.97;;;7.93;;
17648;SDS011;8943;51.110;-4.158;2023-03-04T08:42:18;11.50;;;7.33;;
17648;SDS011;8943;51.110;-4.158;2023-03-04T08:44:46;11.27;;;7.40;;
17648;SDS011;8943;51.110;-4.158;2023-03-04T08:47:15;14.03;;;7.50;;
17648;SDS011;8943;51.110;-4.158;2023-03-04T08:49:43;15.83;;;7.97;;
17648;SDS011;8943;51.110;-4.158;2023-03-04T08:52:11;10.83;;;7.50;;
17648;SDS011;8943;51.110;-4.158;2023-03-04T08:54:39;12.37;;;7.70;;
17648;SDS011;8943;51.110;-4.158;2023-03-04T08:57:07;17.90;;;8.40;;
17648;SDS011;8943;51.110;-4.158;2023-03-04T08:59:35;15.20;;;9.07;;
17648;SDS011;8943;51.110;-4.158;2023-03-04T09:02:04;15.63;;;8.77;;
17648;SDS011;8943;51.110;-4.158;2023-03-04T09:04:33;16.53;;;8.80;;
17648;SDS011;8943;51.110;-4.158;2023-03-04T09:07:01;10.67;;;7.33;;
17648;SDS011;8943;51.110;-4.158;2023-03-04T09:09:30;14.87;;;8.80;;
17648;SDS011;8943;51.110;-4.158;2023-03-04T09:11:58;14.10;;;9.63;;
17648;SDS011;8943;51.110;-4.158;2023-03-04T09:14:26;14.30;;;9.53;;
17648;SDS011;8943;51.110;-4.158;2023-03-04T09:16:54;23.37;;;11.80;;
17648;SDS011;8943;51.110;-4.158;2023-03-04T09:19:22;18.20;;;11.40;;
17648;SDS011;8943;51.110;-4.158;2023-03-04T09:21:51;14.47;;;10.40;;
17648;SDS011;8943;51.110;-4.158;2023-03-04T09:24:20;16.43;;;11.40;;
17648;SDS011;8943;51.110;-4.158;2023-03-04T09:26:49;18.50;;;10.17;;
17648;SDS011;8943;51.110;-4.158;2023-03-04T09:29:18;17.53;;;11.00;;
17648;SDS011;8943;51.110;-4.158;2023-03-04T09:31:46;19.30;;;10.47;;
17648;SDS011;8943;51.110;-4.158;2023-03-04T09:34:14;15.80;;;10.73;;
17648;SDS011;8943;51.110;-4.158;2023-03-04T09:36:42;19.90;;;11.47;;
17648;SDS011;8943;51.110;-4.158;2023-03-04T09:39:11;16.50;;;11.43;;
17648;SDS011;8943;51.110;-4.158;2023-03-04T09:41:40;22.23;;;15.63;;
17648;SDS011;8943;51.110;-4.158;2023-03-04T09:44:14;19.60;;;16.10;;
17648;SDS011;8943;51.110;-4.158;2023-03-04T09:46:48;20.13;;;13.93;;
17648;SDS011;8943;51.110;-4.158;2023-03-04T09:49:18;16.40;;;13.03;;
17648;SDS011;8943;51.110;-4.158;2023-03-04T09:51:51;17.43;;;11.50;;
17648;SDS011;8943;51.110;-4.158;2023-03-04T09:54:31;18.03;;;11.30;;
17648;SDS011;8943;51.110;-4.158;2023-03-04T09:57:20;19.40;;;11.27;;
17648;SDS011;8943;51.110;-4.158;2023-03-04T09:59:58;16.20;;;10.87;;
17648;SDS011;8943;51.110;-4.158;2023-03-04T10:02:36;15.00;;;10.77;;
17648;SDS011;8943;51.110;-4.158;2023-03-04T10:05:12;14.53;;;10.17;;
17648;SDS011;8943;51.110;-4.158;2023-03-04T10:07:44;19.90;;;11.40;;
17648;SDS011;8943;51.110;-4.158;2023-03-04T10:10:18;13.33;;;9.47;;
17648;SDS011;8943;51.110;-4.158;2023-03-04T10:12:50;14.73;;;9.73;;
17648;SDS011;8943;51.110;-4.158;2023-03-04T10:15:22;12.80;;;9.50;;
17648;SDS011;8943;51.110;-4.158;2023-03-04T10:17:57;13.83;;;9.23;;
17648;SDS011;8943;51.110;-4.158;2023-03-04T10:20:37;13.90;;;9.17;;
17648;SDS011;8943;51.110;-4.158;2023-03-04T10:23:17;14.67;;;9.70;;
17648;SDS011;8943;51.110;-4.158;2023-03-04T10:25:49;15.87;;;10.27;;
17648;SDS011;8943;51.110;-4.158;2023-03-04T10:28:20;14.70;;;9.37;;
17648;SDS011;8943;51.110;-4.158;2023-03-04T10:30:54;11.57;;;8.17;;
17648;SDS011;8943;51.110;-4.158;2023-03-04T10:33:27;12.87;;;9.47;;
17648;SDS011;8943;51.110;-4.158;2023-03-04T10:35:59;13.33;;;8.90;;
17648;SDS011;8943;51.110;-4.158;2023-03-04T10:38:29;12.87;;;9.53;;
17648;SDS011;8943;51.110;-4.158;2023-03-04T10:41:00;14.13;;;8.73;;
17648;SDS011;8943;51.110;-4.158;2023-03-04T10:43:38;11.97;;;8.83;;
17648;SDS011;8943;51.110;-4.158;2023-03-04T10:46:09;12.83;;;8.20;;
17648;SDS011;8943;51.110;-4.158;2023-03-04T10:48:39;13.70;;;9.00;;
17648;SDS011;8943;51.110;-4.158;2023-03-04T10:51:10;12.20;;;8.27;;
17648;SDS011;8943;51.110;-4.158;2023-03-04T10:53:44;12.57;;;8.97;;
17648;SDS011;8943;51.110;-4.158;2023-03-04T10:56:36;14.00;;;8.70;;
17648;SDS011;8943;51.110;-4.158;2023-03-04T11:02:05;13.80;;;8.23;;
17648;SDS011;8943;51.110;-4.158;2023-03-04T11:04:41;15.70;;;8.90;;
17648;SDS011;8943;51.110;-4.158;2023-03-04T11:07:09;17.20;;;8.67;;
17648;SDS011;8943;51.110;-4.158;2023-03-04T11:09:38;12.00;;;8.77;;
17648;SDS011;8943;51.110;-4.158;2023-03-04T11:12:10;14.43;;;8.60;;
17648;SDS011;8943;51.110;-4.158;2023-03-04T11:14:40;10.50;;;8.37;;
17648;SDS011;8943;51.110;-4.158;2023-03-04T11:17:18;10.73;;;8.40;;
17648;SDS011;8943;51.110;-4.158;2023-03-04T11:19:50;11.43;;;8.40;;
17648;SDS011;8943;51.110;-4.158;2023-03-04T11:22:23;14.83;;;8.90;;
17648;SDS011;8943;51.110;-4.158;2023-03-04T11:24:58;11.90;;;8.07;;
17648;SDS011;8943;51.110;-4.158;2023-03-04T11:27:35;11.73;;;8.13;;
17648;SDS011;8943;51.110;-4.158;2023-03-04T11:32:56;9.20;;;7.13;;
17648;SDS011;8943;51.110;-4.158;2023-03-04T11:35:32;12.87;;;7.40;;
17648;SDS011;8943;51.110;-4.158;2023-03-04T11:38:07;9.57;;;6.47;;
17648;SDS011;8943;51.110;-4.158;2023-03-04T11:40:44;12.23;;;7.03;;
17648;SDS011;8943;51.110;-4.158;2023-03-04T11:43:18;7.50;;;6.30;;
17648;SDS011;8943;51.110;-4.158;2023-03-04T11:45:58;10.27;;;6.00;;
17648;SDS011;8943;51.110;-4.158;2023-03-04T11:48:38;10.90;;;6.73;;
17648;SDS011;8943;51.110;-4.158;2023-03-04T11:51:17;16.50;;;9.10;;
17648;SDS011;8943;51.110;-4.158;2023-03-04T11:53:52;11.83;;;8.63;;
17648;SDS011;8943;51.110;-4.158;2023-03-04T11:56:34;16.20;;;7.57;;
17648;SDS011;8943;51.110;-4.158;2023-03-04T12:02:12;12.27;;;8.33;;
17648;SDS011;8943;51.110;-4.158;2023-03-04T12:04:58;12.23;;;8.07;;
17648;SDS011;8943;51.110;-4.158;2023-03-04T12:07:57;11.73;;;7.80;;
17648;SDS011;8943;51.110;-4.158;2023-03-04T12:10:35;9.73;;;7.07;;
17648;SDS011;8943;51.110;-4.158;2023-03-04T12:13:15;12.73;;;7.00;;
17648;SDS011;8943;51.110;-4.158;2023-03-04T12:15:59;11.47;;;6.63;;
17648;SDS011;8943;51.110;-4.158;2023-03-04T12:18:39;11.83;;;7.63;;
17648;SDS011;8943;51.110;-4.158;2023-03-04T12:21:24;12.10;;;6.60;;
17648;SDS011;8943;51.110;-4.158;2023-03-04T12:24:14;11.07;;;6.93;;
17648;SDS011;8943;51.110;-4.158;2023-03-04T12:27:00;11.80;;;7.13;;
17648;SDS011;8943;51.110;-4.158;2023-03-04T12:29:39;14.57;;;7.83;;
17648;SDS011;8943;51.110;-4.158;2023-03-04T12:32:16;11.73;;;7.23;;
17648;SDS011;8943;51.110;-4.158;2023-03-04T12:34:59;13.33;;;9.17;;
17648;SDS011;8943;51.110;-4.158;2023-03-04T12:37:44;11.93;;;8.33;;
17648;SDS011;8943;51.110;-4.158;2023-03-04T12:40:33;11.27;;;8.60;;
17648;SDS011;8943;51.110;-4.158;2023-03-04T12:46:17;14.60;;;8.20;;
17648;SDS011;8943;51.110;-4.158;2023-03-04T12:48:59;12.03;;;8.20;;
17648;SDS011;8943;51.110;-4.158;2023-03-04T12:51:43;12.23;;;8.63;;
17648;SDS011;8943;51.110;-4.158;2023-03-04T12:54:17;12.83;;;8.23;;
17648;SDS011;8943;51.110;-4.158;2023-03-04T12:56:52;16.37;;;9.37;;
17648;SDS011;8943;51.110;-4.158;2023-03-04T12:59:24;12.10;;;8.97;;
17648;SDS011;8943;51.110;-4.158;2023-03-04T13:01:55;11.30;;;9.20;;
17648;SDS011;8943;51.110;-4.158;2023-03-04T13:04:39;12.80;;;8.77;;
17648;SDS011;8943;51.110;-4.158;2023-03-04T13:07:19;15.07;;;8.80;;
17648;SDS011;8943;51.110;-4.158;2023-03-04T13:09:57;12.27;;;9.57;;
17648;SDS011;8943;51.110;-4.158;2023-03-04T13:12:44;17.57;;;9.50;;
17648;SDS011;8943;51.110;-4.158;2023-03-04T13:15:16;12.63;;;8.37;;
17648;SDS011;8943;51.110;-4.158;2023-03-04T13:17:53;16.83;;;8.83;;
17648;SDS011;8943;51.110;-4.158;2023-03-04T13:20:31;12.80;;;9.23;;
17648;SDS011;8943;51.110;-4.158;2023-03-04T13:23:02;11.50;;;8.60;;
17648;SDS011;8943;51.110;-4.158;2023-03-04T13:25:32;14.00;;;8.77;;
17648;SDS011;8943;51.110;-4.158;2023-03-04T13:28:18;16.83;;;12.33;;
17648;SDS011;8943;51.110;-4.158;2023-03-04T13:36:34;16.30;;;10.37;;
17648;SDS011;8943;51.110;-4.158;2023-03-04T13:39:23;16.87;;;9.53;;
17648;SDS011;8943;51.110;-4.158;2023-03-04T13:41:56;15.53;;;10.30;;
17648;SDS011;8943;51.110;-4.158;2023-03-04T13:47:29;15.47;;;10.23;;
17648;SDS011;8943;51.110;-4.158;2023-03-04T13:50:23;18.27;;;10.17;;
17648;SDS011;8943;51.110;-4.158;2023-03-04T13:52:57;12.97;;;9.53;;
17648;SDS011;8943;51.110;-4.158;2023-03-04T13:55:44;13.53;;;9.60;;
17648;SDS011;8943;51.110;-4.158;2023-03-04T13:58:31;14.07;;;10.00;;
17648;SDS011;8943;51.110;-4.158;2023-03-04T14:00:59;13.50;;;9.80;;
17648;SDS011;8943;51.110;-4.158;2023-03-04T14:03:28;14.17;;;9.83;;
17648;SDS011;8943;51.110;-4.158;2023-03-04T14:06:11;15.63;;;9.93;;
17648;SDS011;8943;51.110;-4.158;2023-03-04T14:08:45;16.30;;;10.13;;
17648;SDS011;8943;51.110;-4.158;2023-03-04T14:11:14;13.60;;;10.23;;
17648;SDS011;8943;51.110;-4.158;2023-03-04T14:13:45;15.03;;;10.17;;
17648;SDS011;8943;51.110;-4.158;2023-03-04T14:16:17;16.00;;;10.60;;
17648;SDS011;8943;51.110;-4.158;2023-03-04T14:18:55;14.70;;;11.23;;
17648;SDS011;8943;51.110;-4.158;2023-03-04T14:21:24;12.50;;;10.00;;
17648;SDS011;8943;51.110;-4.158;2023-03-04T14:24:01;17.30;;;10.00;;
17648;SDS011;8943;51.110;-4.158;2023-03-04T14:26:31;18.47;;;9.97;;
17648;SDS011;8943;51.110;-4.158;2023-03-04T14:28:59;15.47;;;10.43;;
17648;SDS011;8943;51.110;-4.158;2023-03-04T14:31:29;17.23;;;10.93;;
17648;SDS011;8943;51.110;-4.158;2023-03-04T14:34:00;24.40;;;11.77;;
17648;SDS011;8943;51.110;-4.158;2023-03-04T14:36:30;16.00;;;11.40;;
17648;SDS011;8943;51.110;-4.158;2023-03-04T14:39:01;17.97;;;11.70;;
17648;SDS011;8943;51.110;-4.158;2023-03-04T14:41:32;21.87;;;11.50;;
17648;SDS011;8943;51.110;-4.158;2023-03-04T14:44:05;18.57;;;12.07;;
17648;SDS011;8943;51.110;-4.158;2023-03-04T14:46:39;17.37;;;11.63;;
17648;SDS011;8943;51.110;-4.158;2023-03-04T14:49:30;16.60;;;12.17;;
17648;SDS011;8943;51.110;-4.158;2023-03-04T14:51:59;18.50;;;12.00;;
17648;SDS011;8943;51.110;-4.158;2023-03-04T14:54:29;16.67;;;11.43;;
17648;SDS011;8943;51.110;-4.158;2023-03-04T14:57:01;16.00;;;11.70;;
17648;SDS011;8943;51.110;-4.158;2023-03-04T14:59:49;19.87;;;11.17;;
17648;SDS011;8943;51.110;-4.158;2023-03-04T15:02:23;17.00;;;12.30;;
17648;SDS011;8943;51.110;-4.158;2023-03-04T15:04:57;14.33;;;11.53;;
17648;SDS011;8943;51.110;-4.158;2023-03-04T15:07:29;16.97;;;11.73;;
17648;SDS011;8943;51.110;-4.158;2023-03-04T15:10:02;16.37;;;11.73;;
17648;SDS011;8943;51.110;-4.158;2023-03-04T15:12:33;20.97;;;12.77;;
17648;SDS011;8943;51.110;-4.158;2023-03-04T15:15:28;18.33;;;12.97;;
17648;SDS011;8943;51.110;-4.158;2023-03-04T15:18:24;18.03;;;12.53;;